createdAt,value
2022-11-23T00:01:37.482Z,3.47
2022-11-23T00:04:05.164Z,3.47
2022-11-23T00:06:32.158Z,3.20
2022-11-23T00:08:59.162Z,3.40
2022-11-23T00:11:26.967Z,3.63
2022-11-23T00:13:53.945Z,3.10
2022-11-23T00:16:22.101Z,3.03
2022-11-23T00:23:43.523Z,4.57
2022-11-23T00:26:10.433Z,4.28
2022-11-23T00:28:39.841Z,3.50
2022-11-23T00:33:36.124Z,3.75
2022-11-23T00:36:08.668Z,3.90
2022-11-23T00:48:36.470Z,3.03
2022-11-23T00:51:04.774Z,3.40
2022-11-23T00:53:32.941Z,3.22
2022-11-23T00:55:59.921Z,3.40
2022-11-23T00:58:26.977Z,3.03
2022-11-23T01:01:04.352Z,3.42
2022-11-23T01:03:34.215Z,3.40
2022-11-23T01:08:34.253Z,3.90
2022-11-23T01:11:01.979Z,3.75
2022-11-23T01:18:20.604Z,3.30
2022-11-23T01:20:47.328Z,3.85
2022-11-23T01:23:13.960Z,4.10
2022-11-23T01:25:40.571Z,3.33
2022-11-23T01:28:07.329Z,3.63
2022-11-23T01:30:34.649Z,3.25
2022-11-23T01:33:01.333Z,3.75
2022-11-23T01:35:28.577Z,3.72
2022-11-23T01:37:55.244Z,3.38
2022-11-23T01:40:22.106Z,3.40
2022-11-23T01:42:54.999Z,3.75
2022-11-23T01:45:33.840Z,4.65
2022-11-23T01:48:01.242Z,4.03
2022-11-23T01:50:28.047Z,4.10
2022-11-23T01:52:54.902Z,3.67
2022-11-23T01:55:21.536Z,3.47
2022-11-23T01:57:48.389Z,3.13
2022-11-23T02:00:15.424Z,3.92
2022-11-23T02:02:45.890Z,3.35
2022-11-23T02:05:14.879Z,3.63
2022-11-23T02:07:45.142Z,3.80
2022-11-23T02:12:37.242Z,3.72
2022-11-23T02:15:04.261Z,4.25
2022-11-23T02:22:50.406Z,3.50
2022-11-23T02:25:25.405Z,4.15
2022-11-23T02:30:19.100Z,3.70
2022-11-23T02:32:45.854Z,4.32
2022-11-23T02:40:09.952Z,3.45
2022-11-23T02:45:28.954Z,4.57
2022-11-23T02:52:46.424Z,4.40
2022-11-23T02:55:15.544Z,3.95
2022-11-23T03:07:30.322Z,5.72
2022-11-23T03:09:58.713Z,5.68
2022-11-23T03:14:50.989Z,4.75
2022-11-23T03:17:18.084Z,4.82
2022-11-23T03:27:39.901Z,4.80
2022-11-23T03:30:08.802Z,4.97
2022-11-23T03:32:35.800Z,4.40
2022-11-23T03:35:03.434Z,5.35
2022-11-23T03:37:30.844Z,4.57
2022-11-23T03:39:57.823Z,3.92
2022-11-23T03:47:15.307Z,4.57
2022-11-23T03:52:09.163Z,3.20
2022-11-23T03:54:35.774Z,3.63
2022-11-23T03:57:02.366Z,3.20
2022-11-23T03:59:29.528Z,3.50
2022-11-23T04:01:56.669Z,3.38
2022-11-23T04:04:23.282Z,3.58
2022-11-23T04:07:05.969Z,2.78
2022-11-23T04:14:23.533Z,2.55
2022-11-23T04:19:16.585Z,2.58
2022-11-23T04:21:43.249Z,1.90
2022-11-23T04:24:09.976Z,2.40
2022-11-23T04:26:36.644Z,1.92
2022-11-23T04:29:03.444Z,1.50
2022-11-23T04:31:32.105Z,1.92
2022-11-23T04:34:09.426Z,1.55
2022-11-23T04:36:36.702Z,1.73
2022-11-23T04:39:04.279Z,1.33
2022-11-23T04:41:41.666Z,1.13
2022-11-23T04:44:09.117Z,1.60
2022-11-23T04:46:35.837Z,1.38
2022-11-23T04:49:02.520Z,1.17
2022-11-23T04:51:29.200Z,1.00
2022-11-23T04:53:56.001Z,1.00
2022-11-23T04:56:23.763Z,0.93
2022-11-23T04:58:50.560Z,1.10
2022-11-23T05:01:17.275Z,0.95
2022-11-23T05:03:44.437Z,1.27
2022-11-23T05:06:12.355Z,0.90
2022-11-23T05:08:39.004Z,0.90
2022-11-23T05:23:12.975Z,1.15
2022-11-23T05:25:42.417Z,1.20
2022-11-23T05:28:38.527Z,0.90
2022-11-23T05:31:02.759Z,0.93
2022-11-23T05:33:29.440Z,0.98
2022-11-23T05:35:56.103Z,1.50
2022-11-23T05:38:33.226Z,0.80
2022-11-23T05:41:02.073Z,1.02
2022-11-23T05:43:28.928Z,1.10
2022-11-23T05:45:58.566Z,0.82
2022-11-23T05:48:25.338Z,0.90
2022-11-23T05:50:52.109Z,0.80
2022-11-23T05:53:25.613Z,0.77
2022-11-23T05:56:02.221Z,0.70
2022-11-23T05:58:29.151Z,1.00
2022-11-23T06:01:02.516Z,1.00
2022-11-23T06:03:29.209Z,1.10
2022-11-23T06:05:55.917Z,0.88
2022-11-23T06:08:30.980Z,1.08
2022-11-23T06:11:00.917Z,1.00
2022-11-23T06:13:27.802Z,1.20
2022-11-23T06:15:54.432Z,0.93
2022-11-23T06:18:27.906Z,0.90
2022-11-23T06:23:19.998Z,1.20
2022-11-23T06:25:47.434Z,1.50
2022-11-23T06:28:23.865Z,1.33
2022-11-23T06:30:52.913Z,1.20
2022-11-23T06:33:19.549Z,1.35
2022-11-23T06:38:18.431Z,1.70
2022-11-23T06:40:45.446Z,1.17
2022-11-23T06:45:37.652Z,1.05
2022-11-23T06:48:08.340Z,1.13
2022-11-23T06:50:34.905Z,1.02
2022-11-23T06:53:01.901Z,1.40
2022-11-23T06:58:06.096Z,0.90
2022-11-23T07:00:33.409Z,0.90
2022-11-23T07:03:00.707Z,0.90
2022-11-23T07:05:31.179Z,0.95
2022-11-23T07:07:57.902Z,0.93
2022-11-23T07:10:26.875Z,1.00
2022-11-23T07:13:04.804Z,0.70
2022-11-23T07:25:18.477Z,0.90
2022-11-23T07:27:45.287Z,0.63
2022-11-23T07:30:12.144Z,0.70
2022-11-23T07:32:38.847Z,0.50
2022-11-23T07:35:05.727Z,0.50
2022-11-23T07:37:32.337Z,0.70
2022-11-23T07:39:59.632Z,0.63
2022-11-23T07:42:34.587Z,0.50
2022-11-23T07:45:04.667Z,0.50
2022-11-23T07:47:31.840Z,0.60
2022-11-23T07:49:58.540Z,0.68
2022-11-23T07:52:25.230Z,0.80
2022-11-23T07:54:51.997Z,0.57
2022-11-23T07:57:21.732Z,0.50
2022-11-23T08:02:14.998Z,0.70
2022-11-23T08:04:41.744Z,0.77
2022-11-23T08:09:33.865Z,0.52
2022-11-23T08:12:00.576Z,1.30
2022-11-23T08:14:27.459Z,3.63
2022-11-23T08:16:54.145Z,1.40
2022-11-23T08:19:20.855Z,0.60
2022-11-23T08:21:47.519Z,0.38
2022-11-23T08:26:39.785Z,0.60
2022-11-23T08:29:06.539Z,0.40
2022-11-23T08:34:03.056Z,0.30
2022-11-23T08:36:30.414Z,0.40
2022-11-23T08:38:57.137Z,0.50
2022-11-23T08:41:25.640Z,0.60
2022-11-23T08:43:52.270Z,0.50
2022-11-23T08:48:45.053Z,0.43
2022-11-23T08:51:12.115Z,0.52
2022-11-23T08:58:31.002Z,0.60
2022-11-23T09:03:23.142Z,0.57
2022-11-23T09:05:51.241Z,0.90
2022-11-23T09:08:18.017Z,2.10
2022-11-23T09:10:44.768Z,1.27
2022-11-23T09:13:11.349Z,1.10
2022-11-23T09:15:37.987Z,1.00
2022-11-23T09:18:04.696Z,0.98
2022-11-23T09:20:31.333Z,2.00
2022-11-23T09:25:23.721Z,2.00
2022-11-23T09:27:56.465Z,1.52
2022-11-23T09:30:23.109Z,1.63
2022-11-23T09:40:06.349Z,2.47
2022-11-23T09:42:36.037Z,2.05
2022-11-23T09:45:05.754Z,2.35
2022-11-23T09:47:49.986Z,3.70
2022-11-23T09:50:33.452Z,2.63
2022-11-23T09:53:04.001Z,2.50
2022-11-23T09:55:40.159Z,3.35
2022-11-23T10:03:13.718Z,4.25
2022-11-23T10:05:40.512Z,3.00
2022-11-23T10:21:34.931Z,3.38
2022-11-23T10:24:11.024Z,4.00
2022-11-23T10:26:42.699Z,3.45
2022-11-23T10:29:27.977Z,3.80
2022-11-23T10:31:57.256Z,3.22
2022-11-23T10:36:56.224Z,3.67
2022-11-23T10:39:23.992Z,3.20
2022-11-23T10:46:51.532Z,3.35
2022-11-23T10:49:22.522Z,3.30
2022-11-23T10:52:09.364Z,2.80
2022-11-23T10:54:38.338Z,2.35
2022-11-23T10:57:31.108Z,2.17
2022-11-23T10:59:59.658Z,2.08
2022-11-23T11:02:26.692Z,2.58
2022-11-23T11:10:04.160Z,2.47
2022-11-23T11:17:41.126Z,2.33
2022-11-23T11:20:22.847Z,2.95
2022-11-23T11:22:49.568Z,3.03
2022-11-23T11:25:30.833Z,3.42
2022-11-23T11:27:58.022Z,3.35
2022-11-23T11:30:25.271Z,3.35
2022-11-23T11:32:51.884Z,2.47
2022-11-23T11:38:06.310Z,3.35
2022-11-23T11:45:34.422Z,2.80
2022-11-23T11:50:35.036Z,2.85
2022-11-23T11:53:12.616Z,2.75
2022-11-23T11:55:45.128Z,3.30
2022-11-23T11:58:14.342Z,3.40
2022-11-23T12:00:45.045Z,2.97
2022-11-23T12:03:19.718Z,2.75
2022-11-23T12:05:50.374Z,2.80
2022-11-23T12:10:58.149Z,4.20
2022-11-23T12:16:08.338Z,4.20
2022-11-23T12:18:46.389Z,3.38
2022-11-23T12:21:35.812Z,3.67
2022-11-23T12:26:50.177Z,3.97
2022-11-23T12:37:40.061Z,4.57
2022-11-23T12:40:17.436Z,4.68
2022-11-23T12:42:49.259Z,4.38
2022-11-23T12:47:58.104Z,3.90
2022-11-23T12:50:24.753Z,4.07
2022-11-23T12:58:29.365Z,3.80
2022-11-23T13:01:03.171Z,4.85
2022-11-23T13:03:59.304Z,3.28
2022-11-23T13:06:33.961Z,4.25
2022-11-23T13:09:21.344Z,4.30
2022-11-23T13:12:06.832Z,3.20
2022-11-23T13:17:14.505Z,3.47
2022-11-23T13:19:50.102Z,4.00
2022-11-23T13:22:19.374Z,4.40
2022-11-23T13:25:04.817Z,4.28
2022-11-23T13:27:41.347Z,4.15
2022-11-23T13:32:40.570Z,4.85
2022-11-23T13:37:56.879Z,3.72
2022-11-23T13:40:24.844Z,4.55
2022-11-23T13:42:51.886Z,3.72
2022-11-23T13:45:21.421Z,3.80
2022-11-23T13:48:03.790Z,4.38
2022-11-23T13:58:08.135Z,4.43
2022-11-23T14:00:45.697Z,2.88
2022-11-23T14:03:30.806Z,3.90
2022-11-23T14:11:26.861Z,4.22
2022-11-23T14:13:56.254Z,3.83
2022-11-23T14:16:47.631Z,4.28
2022-11-23T14:19:33.034Z,3.55
2022-11-23T14:24:58.740Z,3.88
2022-11-23T14:27:53.721Z,4.13
2022-11-23T14:30:26.598Z,3.30
2022-11-23T14:33:11.723Z,4.13
2022-11-23T14:35:46.797Z,3.70
2022-11-23T14:38:42.744Z,3.58
2022-11-23T14:41:18.210Z,4.13
2022-11-23T14:43:46.066Z,4.30
2022-11-23T14:46:20.543Z,3.42
2022-11-23T14:48:48.012Z,3.08
2022-11-23T14:51:28.010Z,3.63
2022-11-23T14:56:21.522Z,3.10
2022-11-23T14:58:48.685Z,3.78
2022-11-23T15:01:22.030Z,2.90
2022-11-23T15:03:58.654Z,3.25
2022-11-23T15:08:52.780Z,3.92
2022-11-23T15:11:22.854Z,3.80
2022-11-23T15:13:50.961Z,3.97
2022-11-23T15:16:18.634Z,3.80
2022-11-23T15:18:45.895Z,3.22
2022-11-23T15:23:42.145Z,3.38
2022-11-23T15:28:39.019Z,5.25
2022-11-23T15:38:42.952Z,3.28
2022-11-23T15:41:09.856Z,3.42
2022-11-23T15:43:36.490Z,4.10
2022-11-23T15:46:05.199Z,3.45
2022-11-23T15:48:33.569Z,3.53
2022-11-23T15:51:01.675Z,3.70
2022-11-23T15:53:43.585Z,3.80
2022-11-23T15:56:14.245Z,6.22
2022-11-23T16:01:12.731Z,3.67
2022-11-23T16:03:52.607Z,4.15
2022-11-23T16:06:24.644Z,4.50
2022-11-23T16:08:51.683Z,3.75
2022-11-23T16:11:19.826Z,3.72
2022-11-23T16:13:46.476Z,3.85
2022-11-23T16:16:18.565Z,3.40
2022-11-23T16:18:46.205Z,3.72
2022-11-23T16:21:17.344Z,3.53
2022-11-23T16:23:51.697Z,3.90
2022-11-23T16:26:18.605Z,3.33
2022-11-23T16:28:49.921Z,3.58
2022-11-23T16:34:00.594Z,3.90
2022-11-23T16:36:27.906Z,4.15
2022-11-23T16:39:00.942Z,3.90
2022-11-23T16:41:29.219Z,3.95
2022-11-23T16:43:55.803Z,5.05
2022-11-23T16:48:48.234Z,3.95
2022-11-23T16:51:14.936Z,4.28
2022-11-23T16:58:35.709Z,4.05
2022-11-23T17:01:02.841Z,4.28
2022-11-23T17:03:29.469Z,4.10
2022-11-23T17:05:56.235Z,4.07
2022-11-23T17:10:49.015Z,4.10
2022-11-23T17:15:51.717Z,3.25
2022-11-23T17:18:18.766Z,5.25
2022-11-23T17:20:45.497Z,3.92
2022-11-23T17:23:12.276Z,4.15
2022-11-23T17:25:39.812Z,3.80
2022-11-23T17:28:11.494Z,4.50
2022-11-23T17:30:38.217Z,4.40
2022-11-23T17:33:04.856Z,3.65
2022-11-23T17:37:56.953Z,4.43
2022-11-23T17:40:24.825Z,4.50
2022-11-23T17:42:51.685Z,4.43
2022-11-23T17:45:18.384Z,4.50
2022-11-23T17:47:45.130Z,4.50
2022-11-23T17:50:17.728Z,5.03
2022-11-23T17:52:48.078Z,5.55
2022-11-23T17:55:15.101Z,4.05
2022-11-23T17:57:42.111Z,5.05
2022-11-23T18:00:35.169Z,5.05
2022-11-23T18:03:01.764Z,4.30
2022-11-23T18:05:29.939Z,4.53
2022-11-23T18:07:57.906Z,3.85
2022-11-23T18:12:50.145Z,4.68
2022-11-23T18:15:16.869Z,4.50
2022-11-23T18:22:41.018Z,7.75
2022-11-23T18:27:33.391Z,13.07
2022-11-23T18:30:00.165Z,8.82
2022-11-23T18:44:34.531Z,5.82
2022-11-23T18:49:27.461Z,5.50
2022-11-23T18:51:54.084Z,5.15
2022-11-23T18:54:20.760Z,5.45
2022-11-23T18:56:48.133Z,5.30
2022-11-23T18:59:35.086Z,5.40
2022-11-23T19:02:01.578Z,4.32
2022-11-23T19:04:28.297Z,5.00
2022-11-23T19:06:54.953Z,3.50
2022-11-23T19:11:50.000Z,4.45
2022-11-23T19:14:18.260Z,4.35
2022-11-23T19:27:06.054Z,4.63
2022-11-23T19:29:33.793Z,4.47
2022-11-23T19:32:01.360Z,4.72
2022-11-23T19:34:27.920Z,4.88
2022-11-23T19:36:55.075Z,4.88
2022-11-23T19:41:47.570Z,5.15
2022-11-23T19:44:14.334Z,4.20
2022-11-23T19:46:41.148Z,4.50
2022-11-23T19:49:09.190Z,5.10
2022-11-23T19:51:36.102Z,4.75
2022-11-23T19:56:30.253Z,5.18
2022-11-23T19:58:58.547Z,5.00
2022-11-23T20:01:26.974Z,6.68
2022-11-23T20:03:55.036Z,6.65
2022-11-23T20:06:25.040Z,6.40
2022-11-23T20:11:24.893Z,6.38
2022-11-23T20:13:51.683Z,5.32
2022-11-23T20:21:14.748Z,5.95
2022-11-23T20:26:08.019Z,6.03
2022-11-23T20:28:36.081Z,5.28
2022-11-23T20:36:07.334Z,4.97
2022-11-23T20:38:38.183Z,5.00
2022-11-23T20:41:12.165Z,6.18
2022-11-23T20:43:39.366Z,5.10
2022-11-23T20:46:06.196Z,5.55
2022-11-23T20:55:49.957Z,4.68
2022-11-23T20:58:17.122Z,4.18
2022-11-23T21:00:50.187Z,5.30
2022-11-23T21:03:18.140Z,5.57
2022-11-23T21:05:44.915Z,4.57
2022-11-23T21:08:20.688Z,5.28
2022-11-23T21:11:09.354Z,4.63
2022-11-23T21:13:54.296Z,4.00
2022-11-23T21:16:21.564Z,4.65
2022-11-23T21:18:48.325Z,4.40
2022-11-23T21:21:14.976Z,5.75
2022-11-23T21:31:08.354Z,5.05
2022-11-23T21:33:38.178Z,4.43
2022-11-23T21:36:05.505Z,4.78
2022-11-23T21:46:02.865Z,4.47
2022-11-23T21:48:32.413Z,4.97
2022-11-23T21:51:00.087Z,4.90
2022-11-23T21:58:17.877Z,6.32
2022-11-23T22:03:11.503Z,4.22
2022-11-23T22:05:38.181Z,3.67
2022-11-23T22:10:51.776Z,3.90
2022-11-23T22:15:44.687Z,3.33
2022-11-23T22:18:11.572Z,3.20
2022-11-23T22:25:29.124Z,3.55
2022-11-23T22:27:55.807Z,3.13
2022-11-23T22:30:22.551Z,2.72
2022-11-23T22:32:49.105Z,2.15
2022-11-23T22:40:07.046Z,2.22
2022-11-23T22:44:59.389Z,2.10
2022-11-23T22:47:26.019Z,2.40
2022-11-23T22:54:44.049Z,2.42
2022-11-23T22:57:10.790Z,2.40
2022-11-23T22:59:37.405Z,1.92
2022-11-23T23:02:04.041Z,1.80
2022-11-23T23:09:25.162Z,1.65
2022-11-23T23:11:51.846Z,1.38
2022-11-23T23:14:18.789Z,1.33
2022-11-23T23:16:45.368Z,1.40
2022-11-23T23:19:12.034Z,1.05
2022-11-23T23:21:38.661Z,1.23
2022-11-23T23:24:05.793Z,1.73
2022-11-23T23:26:32.411Z,1.85
2022-11-23T23:29:00.386Z,1.50
2022-11-23T23:31:27.582Z,1.20
2022-11-23T23:33:54.319Z,1.95
2022-11-23T23:36:21.629Z,1.25
2022-11-23T23:38:48.220Z,1.50
2022-11-23T23:41:15.290Z,2.13
2022-11-23T23:43:42.156Z,1.38
2022-11-23T23:46:10.105Z,1.63
2022-11-23T23:51:12.877Z,1.30
2022-11-23T23:58:33.351Z,1.77
